Time;durP1;ratioP1;P1;durP2;ratioP2;P2;SDS_P1;SDS_P2;PMS_P1;PMS_P2;Temp;Humidity;BMP_temperature;BMP_pressure;BME280_temperature;BME280_humidity;BME280_pressure;Samples;Min_cycle;Max_cycle;Signal;HPM_P1;HPM_P2
2021/09/24 00:00:09;;;;;;;20.60;19.03;;;;;;;15.51;100.00;98043.69;2040818;29;20447;-79
2021/09/24 00:01:13;;;;;;;20.20;18.70;;;;;;;15.50;100.00;98050.19;2049930;29;20257;-78
2021/09/24 00:02:15;;;;;;;20.17;18.60;;;;;;;15.47;100.00;98056.28;2049854;29;20210;-79
2021/09/24 00:03:15;;;;;;;18.97;17.47;;;;;;;15.50;100.00;98048.28;2049864;29;20522;-79
2021/09/24 00:04:18;;;;;;;20.27;18.20;;;;;;;15.48;100.00;98049.78;2049725;29;20464;-79
2021/09/24 00:05:19;;;;;;;19.45;18.02;;;;;;;15.45;100.00;98050.47;2049765;28;20198;-79
2021/09/24 00:06:21;;;;;;;20.53;18.83;;;;;;;15.40;100.00;98051.53;2049004;29;20583;-79
2021/09/24 00:07:21;;;;;;;20.13;18.50;;;;;;;15.36;100.00;98047.19;2049008;29;20457;-79
2021/09/24 00:08:23;;;;;;;19.93;18.13;;;;;;;15.23;100.00;98051.94;2049240;29;20229;-78
2021/09/24 00:09:25;;;;;;;20.33;18.50;;;;;;;15.11;100.00;98046.66;2049677;29;20199;-79
2021/09/24 00:10:27;;;;;;;21.83;19.95;;;;;;;15.00;100.00;98046.44;2048990;29;20253;-79
2021/09/24 00:11:28;;;;;;;21.58;19.88;;;;;;;14.90;100.00;98053.13;2049051;29;20210;-79
2021/09/24 00:12:30;;;;;;;22.27;20.37;;;;;;;14.83;100.00;98057.53;2048704;29;20797;-79
2021/09/24 00:13:30;;;;;;;21.63;19.73;;;;;;;14.79;100.00;98048.63;2041115;29;20203;-79
2021/09/24 00:14:32;;;;;;;21.33;19.73;;;;;;;14.77;100.00;98057.03;2049129;29;20190;-79
2021/09/24 00:15:33;;;;;;;21.75;19.65;;;;;;;14.79;100.00;98056.69;2049644;29;20202;-79
2021/09/24 00:16:35;;;;;;;21.50;19.77;;;;;;;14.84;100.00;98046.44;2050094;29;20191;-79
2021/09/24 00:17:36;;;;;;;20.75;19.15;;;;;;;14.85;100.00;98058.75;2048560;29;20206;-79
2021/09/24 00:18:38;;;;;;;21.80;20.00;;;;;;;14.87;100.00;98043.09;2049410;29;20684;-79
2021/09/24 00:19:40;;;;;;;21.65;19.75;;;;;;;14.88;100.00;98051.91;2049860;28;20289;-79
2021/09/24 00:20:41;;;;;;;21.13;19.63;;;;;;;14.91;100.00;98053.91;2050395;29;20202;-79
2021/09/24 00:21:42;;;;;;;21.93;20.23;;;;;;;14.98;100.00;98048.69;2042645;29;20642;-79
2021/09/24 00:22:43;;;;;;;21.70;19.80;;;;;;;14.99;100.00;98048.34;2050822;29;20187;-78
2021/09/24 00:23:45;;;;;;;22.37;20.30;;;;;;;15.05;100.00;98048.84;2050483;29;20249;-78
2021/09/24 00:24:47;;;;;;;21.55;19.67;;;;;;;15.11;100.00;98052.03;2050584;29;20195;-78
2021/09/24 00:25:49;;;;;;;20.88;19.17;;;;;;;15.11;100.00;98052.81;2051180;29;20193;-78
2021/09/24 00:26:50;;;;;;;21.52;19.90;;;;;;;15.14;100.00;98054.03;2051552;28;20218;-78
2021/09/24 00:27:52;;;;;;;21.33;19.70;;;;;;;15.17;100.00;98050.63;2050257;29;20198;-78
2021/09/24 00:28:52;;;;;;;23.02;20.48;;;;;;;15.17;100.00;98046.03;2042507;29;20342;-78
2021/09/24 00:29:54;;;;;;;22.00;20.10;;;;;;;15.20;100.00;98058.00;2051038;29;20661;-79
2021/09/24 00:30:56;;;;;;;21.75;20.05;;;;;;;15.28;100.00;98046.25;2051123;28;20213;-79
2021/09/24 00:31:57;;;;;;;22.02;20.17;;;;;;;15.27;100.00;98050.88;2051269;29;20193;-78
2021/09/24 00:32:59;;;;;;;22.42;20.48;;;;;;;15.34;100.00;98046.78;2050534;29;20665;-78
2021/09/24 00:34:00;;;;;;;21.27;19.58;;;;;;;15.37;100.00;98064.88;2050560;29;20190;-79
2021/09/24 00:35:02;;;;;;;22.00;20.10;;;;;;;15.38;100.00;98058.41;2050433;29;20244;-79
2021/09/24 00:36:06;;;;;;;22.23;20.00;;;;;;;15.39;100.00;98068.03;2050541;29;20202;-79
2021/09/24 00:37:07;;;;;;;21.60;19.90;;;;;;;15.39;100.00;98063.41;2051142;28;20210;-79
2021/09/24 00:38:08;;;;;;;21.93;20.13;;;;;;;15.39;100.00;98063.41;2051317;29;20195;-78
2021/09/24 00:39:10;;;;;;;22.15;20.42;;;;;;;15.46;100.00;98070.84;2050242;29;20198;-79
2021/09/24 00:40:14;;;;;;;21.52;20.00;;;;;;;15.50;100.00;98075.16;2042704;29;20215;-79
2021/09/24 00:41:15;;;;;;;21.30;19.63;;;;;;;15.52;100.00;98066.75;2050488;29;20531;-79
2021/09/24 00:42:17;;;;;;;22.63;20.53;;;;;;;15.52;100.00;98072.91;2051154;29;20193;-78
2021/09/24 00:43:18;;;;;;;20.90;19.30;;;;;;;15.57;100.00;98085.31;2050378;29;20705;-79
2021/09/24 00:44:20;;;;;;;21.08;19.15;;;;;;;15.57;100.00;98079.16;2050424;29;20206;-79
2021/09/24 00:45:21;;;;;;;21.25;19.38;;;;;;;15.60;100.00;98081.13;2049996;29;20756;-79
2021/09/24 00:46:22;;;;;;;21.05;19.17;;;;;;;15.58;100.00;98073.41;2050454;29;20262;-79
2021/09/24 00:47:26;;;;;;;21.00;19.30;;;;;;;15.63;100.00;98067.75;2050506;29;20209;-79
2021/09/24 00:48:27;;;;;;;21.27;19.50;;;;;;;15.65;100.00;98076.28;2042725;29;20495;-79
2021/09/24 00:49:29;;;;;;;21.93;20.13;;;;;;;15.64;100.00;98085.47;2050365;29;20248;-78
2021/09/24 00:50:30;;;;;;;23.63;20.27;;;;;;;15.66;100.00;98087.81;2050899;29;20194;-78
2021/09/24 00:51:31;;;;;;;22.88;20.60;;;;;;;15.69;100.00;98089.78;2051071;28;20217;-79
2021/09/24 00:52:33;;;;;;;21.10;19.40;;;;;;;15.64;100.00;98088.16;2050952;29;20193;-79
2021/09/24 00:53:34;;;;;;;22.23;20.45;;;;;;;15.60;100.00;98099.94;2051070;28;20194;-78
2021/09/24 00:54:37;;;;;;;21.92;20.15;;;;;;;15.51;100.00;98082.09;2050090;29;20289;-79
2021/09/24 00:55:39;;;;;;;21.40;19.25;;;;;;;15.51;100.00;98087.47;2050363;29;20221;-78
2021/09/24 00:56:41;;;;;;;21.65;19.95;;;;;;;15.50;100.00;98085.16;2050860;28;20186;-79
2021/09/24 00:57:42;;;;;;;21.17;19.58;;;;;;;15.40;100.00;98080.31;2050859;29;20205;-78
2021/09/24 00:58:44;;;;;;;22.23;20.20;;;;;;;15.35;100.00;98092.13;2050788;28;20213;-78
2021/09/24 00:59:48;;;;;;;21.63;19.85;;;;;;;15.32;100.00;98105.47;2050864;29;20233;-79
2021/09/24 01:00:50;;;;;;;21.38;19.92;;;;;;;15.36;100.00;98074.06;2051762;28;20676;-79
2021/09/24 01:01:51;;;;;;;21.55;19.75;;;;;;;15.33;100.00;98067.50;2059860;28;20166;-79
2021/09/24 01:02:54;;;;;;;21.40;19.77;;;;;;;15.30;100.00;98060.16;2050321;29;20286;-79
2021/09/24 01:03:54;;;;;;;21.67;19.98;;;;;;;15.33;100.00;98066.72;2051212;28;20198;-78
2021/09/24 01:04:56;;;;;;;22.17;20.33;;;;;;;15.34;100.00;98074.44;2059586;28;20190;-79
2021/09/24 01:05:57;;;;;;;21.85;20.05;;;;;;;15.42;100.00;98056.56;2059416;28;20677;-78
2021/09/24 01:07:00;;;;;;;22.33;20.23;;;;;;;15.45;100.00;98063.91;2059083;28;20612;-79
2021/09/24 01:08:02;;;;;;;21.45;19.70;;;;;;;15.42;100.00;98057.31;2059234;28;20194;-79
2021/09/24 01:09:03;;;;;;;22.10;20.20;;;;;;;15.47;100.00;98037.47;2059355;28;20240;-78
2021/09/24 01:10:06;;;;;;;20.97;19.37;;;;;;;15.49;100.00;98049.41;2059170;28;20194;-80
2021/09/24 01:11:08;;;;;;;20.90;19.20;;;;;;;15.48;100.00;98039.81;2050206;29;20210;-78
2021/09/24 01:12:10;;;;;;;20.52;18.65;;;;;;;15.48;100.00;98039.03;2050697;28;20673;-79
2021/09/24 01:13:11;;;;;;;20.48;18.85;;;;;;;15.51;100.00;98041.00;2058912;28;20189;-79
2021/09/24 01:14:12;;;;;;;21.00;19.30;;;;;;;15.55;100.00;98041.88;2059305;28;20281;-79
2021/09/24 01:15:17;;;;;;;21.17;19.42;;;;;;;15.58;100.00;98046.53;2059233;28;20193;-79
2021/09/24 01:16:19;;;;;;;20.52;18.98;;;;;;;15.59;100.00;98045.38;2059283;28;20219;-79
2021/09/24 01:17:21;;;;;;;20.20;18.70;;;;;;;15.61;100.00;98064.66;2059216;28;20276;-79
2021/09/24 01:18:23;;;;;;;21.17;19.27;;;;;;;15.63;100.00;98035.50;2059059;28;20201;-79
2021/09/24 01:19:23;;;;;;;20.58;19.05;;;;;;;15.60;100.00;98032.72;2050089;29;20202;-79
2021/09/24 01:20:26;;;;;;;20.67;19.17;;;;;;;15.59;100.00;98034.63;2050603;29;20214;-79
2021/09/24 01:21:28;;;;;;;20.20;18.60;;;;;;;15.59;100.00;98031.16;2059060;28;20189;-79
2021/09/24 01:22:30;;;;;;;22.10;19.77;;;;;;;15.61;100.00;98032.41;2059143;28;20604;-79
2021/09/24 01:23:30;;;;;;;20.58;18.88;;;;;;;15.60;100.00;98025.44;2059047;28;20193;-79
2021/09/24 01:24:32;;;;;;;20.40;18.80;;;;;;;15.62;100.00;98023.19;2050265;29;20226;-79
2021/09/24 01:25:33;;;;;;;20.15;18.75;;;;;;;15.66;100.00;98028.66;2050624;28;20198;-79
2021/09/24 01:26:35;;;;;;;20.30;18.53;;;;;;;15.70;100.00;98019.50;2058761;28;20194;-79
2021/09/24 01:27:37;;;;;;;21.05;19.15;;;;;;;15.71;100.00;98023.75;2050280;29;20458;-79
2021/09/24 01:28:38;;;;;;;21.23;19.30;;;;;;;15.70;100.00;98024.88;2050368;28;20195;-79
2021/09/24 01:29:39;;;;;;;20.55;18.75;;;;;;;15.72;100.00;98022.63;2058976;28;20193;-79
2021/09/24 01:30:42;;;;;;;20.00;18.23;;;;;;;15.71;100.00;98026.44;2058538;28;20190;-79
2021/09/24 01:31:45;;;;;;;20.98;19.00;;;;;;;15.72;100.00;98030.69;2059094;28;20205;-79
2021/09/24 01:32:48;;;;;;;21.03;19.30;;;;;;;15.77;100.00;98021.56;2059336;28;20182;-79
2021/09/24 01:33:49;;;;;;;20.75;19.13;;;;;;;15.74;100.00;98030.34;2058913;28;20204;-79
2021/09/24 01:34:51;;;;;;;20.40;18.70;;;;;;;15.77;100.00;98032.31;2059051;28;20608;-79
2021/09/24 01:35:53;;;;;;;27.25;18.90;;;;;;;15.78;100.00;98039.25;2050335;29;20195;-79
2021/09/24 01:36:55;;;;;;;21.23;19.38;;;;;;;15.75;100.00;98027.31;2050359;28;20194;-79
2021/09/24 01:37:57;;;;;;;21.52;19.73;;;;;;;15.76;100.00;98028.06;2059147;28;20190;-79
2021/09/24 01:39:01;;;;;;;21.50;19.70;;;;;;;15.76;100.00;98028.84;2050042;29;20631;-80
2021/09/24 01:40:04;;;;;;;21.75;20.15;;;;;;;15.77;100.00;98040.38;2050792;28;20197;-79
2021/09/24 01:41:05;;;;;;;20.65;19.05;;;;;;;15.78;100.00;98026.59;2058703;28;20310;-79
2021/09/24 01:42:07;;;;;;;20.40;18.80;;;;;;;15.82;99.88;98040.88;2058738;28;20198;-79
2021/09/24 01:43:07;;;;;;;21.15;19.40;;;;;;;15.83;100.00;98045.13;2059130;28;20692;-79
2021/09/24 01:44:09;;;;;;;20.33;18.63;;;;;;;15.88;100.00;98027.13;2058850;28;20551;-79
2021/09/24 01:45:12;;;;;;;20.50;18.98;;;;;;;15.88;99.83;98030.59;2059179;28;20193;-78
2021/09/24 01:46:13;;;;;;;20.10;18.50;;;;;;;15.88;100.00;98027.13;2058614;28;20198;-79
2021/09/24 01:47:16;;;;;;;20.67;18.87;;;;;;;15.87;99.44;98030.97;2049499;29;20214;-79
2021/09/24 01:48:17;;;;;;;20.92;19.20;;;;;;;15.91;99.16;98021.84;2050530;28;20265;-79
2021/09/24 01:49:19;;;;;;;20.63;18.92;;;;;;;15.89;99.11;98020.63;2058703;28;20198;-79
2021/09/24 01:50:20;;;;;;;20.40;18.80;;;;;;;15.91;99.18;98021.06;2050041;29;20202;-79
2021/09/24 01:51:22;;;;;;;21.73;19.47;;;;;;;15.87;99.74;98023.66;2050472;28;20186;-80
2021/09/24 01:52:24;;;;;;;20.77;19.13;;;;;;;15.90;98.90;98032.94;2049792;29;20478;-79
2021/09/24 01:53:26;;;;;;;20.15;18.65;;;;;;;15.88;99.55;98033.28;2050108;28;20277;-79
2021/09/24 01:54:27;;;;;;;19.60;18.25;;;;;;;15.87;98.89;98031.75;2058510;28;20559;-79
2021/09/24 01:55:29;;;;;;;20.40;18.80;;;;;;;15.93;98.89;98027.63;2058532;28;20215;-79
2021/09/24 01:56:30;;;;;;;27.60;18.88;;;;;;;15.96;98.75;98020.75;2058348;28;20444;-79
2021/09/24 01:57:31;;;;;;;20.20;18.40;;;;;;;15.93;98.78;98013.41;2058393;28;20217;-79
2021/09/24 01:58:32;;;;;;;21.55;19.67;;;;;;;15.89;99.13;98016.00;2058330;28;20213;-79
2021/09/24 01:59:34;;;;;;;20.30;18.80;;;;;;;15.89;98.77;98024.09;2049771;29;20676;-79
2021/09/24 02:00:37;;;;;;;21.05;19.13;;;;;;;15.94;98.53;98029.19;2041867;29;20207;-78
2021/09/24 02:01:38;;;;;;;21.40;19.42;;;;;;;15.96;97.84;98016.16;2049735;29;20595;-78
2021/09/24 02:02:40;;;;;;;21.25;19.52;;;;;;;15.93;98.13;98002.66;2050463;29;20190;-79
2021/09/24 02:03:41;;;;;;;20.63;19.13;;;;;;;15.92;98.67;98036.84;2050580;29;20218;-78
2021/09/24 02:04:42;;;;;;;20.37;18.63;;;;;;;15.92;98.56;98028.78;2049665;29;20210;-78
2021/09/24 02:05:43;;;;;;;20.90;18.88;;;;;;;15.98;98.33;98013.09;2049713;29;20201;-78
2021/09/24 02:06:45;;;;;;;20.13;18.53;;;;;;;15.98;98.21;98016.56;2041876;29;20195;-78
2021/09/24 02:07:47;;;;;;;19.77;18.23;;;;;;;15.95;98.36;98014.59;2049826;29;20322;-78
2021/09/24 02:08:49;;;;;;;19.90;18.43;;;;;;;15.93;98.58;98049.16;2050499;29;20191;-78
2021/09/24 02:09:49;;;;;;;21.73;18.93;;;;;;;15.93;98.29;98040.31;2050504;29;20426;-78
2021/09/24 02:10:51;;;;;;;22.23;18.50;;;;;;;16.02;97.58;98054.31;2050372;29;20537;-78
2021/09/24 02:11:52;;;;;;;20.00;18.43;;;;;;;16.06;97.57;98060.53;2050503;29;20324;-78
2021/09/24 02:12:57;;;;;;;20.57;19.00;;;;;;;16.02;98.06;98059.69;2050392;28;20518;-78
2021/09/24 02:13:58;;;;;;;20.20;18.60;;;;;;;15.98;98.90;98059.63;2049719;29;20205;-79
2021/09/24 02:15:00;;;;;;;20.93;19.07;;;;;;;15.91;100.00;98059.50;2049735;29;20209;-79
2021/09/24 02:16:02;;;;;;;20.55;19.05;;;;;;;15.79;100.00;98073.09;2050249;28;20194;-79
2021/09/24 02:17:07;;;;;;;20.42;18.88;;;;;;;15.67;100.00;98063.25;2050241;29;20290;-79
2021/09/24 02:18:10;;;;;;;20.87;19.27;;;;;;;15.55;100.00;98069.53;2049505;29;20583;-79
2021/09/24 02:19:10;;;;;;;20.95;19.35;;;;;;;15.49;100.00;98072.84;2049653;29;20437;-78
2021/09/24 02:20:12;;;;;;;20.97;19.27;;;;;;;15.47;100.00;98048.22;2050338;29;20228;-79
2021/09/24 02:21:13;;;;;;;21.08;19.40;;;;;;;15.42;100.00;98054.66;2049164;29;20597;-78
2021/09/24 02:22:15;;;;;;;21.40;19.60;;;;;;;15.39;100.00;98052.66;2049623;29;20222;-78
2021/09/24 02:23:19;;;;;;;21.40;19.55;;;;;;;15.39;100.00;98068.03;2050229;28;20198;-79
2021/09/24 02:24:21;;;;;;;20.92;19.05;;;;;;;15.40;100.00;98058.81;2050359;28;20586;-78
2021/09/24 02:25:23;;;;;;;21.20;19.50;;;;;;;15.45;100.00;98063.91;2049502;29;20209;-79
2021/09/24 02:26:23;;;;;;;21.10;19.17;;;;;;;15.49;100.00;98067.47;2049599;29;20205;-79
2021/09/24 02:27:25;;;;;;;20.97;19.27;;;;;;;15.55;100.00;98058.78;2050429;29;20194;-77
2021/09/24 02:28:26;;;;;;;20.90;19.30;;;;;;;15.58;100.00;98065.34;2050173;29;20199;-78
2021/09/24 02:29:27;;;;;;;20.90;19.27;;;;;;;15.59;100.00;98071.50;2049513;29;20761;-78
2021/09/24 02:30:28;;;;;;;20.58;18.88;;;;;;;15.57;100.00;98074.53;2049500;29;20202;-80
2021/09/24 02:31:33;;;;;;;21.60;19.50;;;;;;;15.54;100.00;98091.38;2049565;29;20630;-78
2021/09/24 02:32:34;;;;;;;21.80;19.98;;;;;;;15.48;100.00;98084.72;2049513;29;20225;-79
2021/09/24 02:33:36;;;;;;;20.33;18.67;;;;;;;15.49;100.00;98075.53;2049557;29;20367;-79
2021/09/24 02:34:38;;;;;;;20.10;18.60;;;;;;;15.54;100.00;98099.44;2049588;29;20445;-81
2021/09/24 02:35:40;;;;;;;20.15;18.35;;;;;;;15.61;100.00;98107.69;2050126;29;20206;-78
2021/09/24 02:36:40;;;;;;;19.77;18.35;;;;;;;15.68;100.00;98117.81;2050126;29;20198;-80
2021/09/24 02:37:42;;;;;;;19.83;18.30;;;;;;;15.71;100.00;98122.47;2050328;29;20183;-80
2021/09/24 02:38:44;;;;;;;20.42;18.92;;;;;;;15.57;100.00;98127.53;2050464;29;20751;-80
2021/09/24 02:39:46;;;;;;;21.02;19.00;;;;;;;15.45;100.00;98133.78;2049437;29;20199;-80
2021/09/24 02:40:47;;;;;;;21.42;19.17;;;;;;;15.37;100.00;98119.41;2041930;29;20534;-79
2021/09/24 02:41:48;;;;;;;20.27;18.67;;;;;;;15.31;100.00;98128.91;2049684;29;20628;-81
2021/09/24 02:42:49;;;;;;;20.05;18.45;;;;;;;15.33;100.00;98117.78;2050013;28;20195;-80
2021/09/24 02:43:51;;;;;;;19.90;18.20;;;;;;;15.27;100.00;98131.47;2049726;29;20217;-80
2021/09/24 02:44:52;;;;;;;19.73;18.33;;;;;;;15.28;100.00;98143.78;2041694;29;20206;-79
2021/09/24 02:45:54;;;;;;;19.33;17.93;;;;;;;15.34;100.00;98120.13;2049632;29;20198;-80
2021/09/24 02:46:54;;;;;;;20.13;18.58;;;;;;;15.34;100.00;98132.78;2049419;29;20206;-80
2021/09/24 02:47:56;;;;;;;19.20;17.70;;;;;;;15.30;100.00;98151.53;2041597;29;20203;-80
2021/09/24 02:48:57;;;;;;;19.55;18.00;;;;;;;15.36;100.00;98125.16;2041657;29;20195;-80
2021/09/24 02:49:58;;;;;;;19.27;17.83;;;;;;;15.34;100.00;98154.28;2049563;29;20201;-80
2021/09/24 02:50:59;;;;;;;19.23;17.60;;;;;;;15.35;100.00;98132.44;2049799;29;20206;-80
2021/09/24 02:52:04;;;;;;;18.97;17.70;;;;;;;15.35;100.00;98145.88;2049478;29;20222;-80
2021/09/24 02:53:04;;;;;;;19.92;18.33;;;;;;;15.37;100.00;98142.81;2049571;29;20252;-80
2021/09/24 02:54:09;;;;;;;19.40;17.97;;;;;;;15.32;100.00;98148.50;2049435;29;20202;-80
2021/09/24 02:55:10;;;;;;;19.60;17.90;;;;;;;15.27;100.00;98152.22;2049658;29;20194;-81
2021/09/24 02:56:12;;;;;;;19.93;18.30;;;;;;;15.25;100.00;98144.50;2049092;29;20233;-79
2021/09/24 02:57:13;;;;;;;19.40;17.85;;;;;;;15.22;100.00;98149.81;2041411;29;20207;-80
2021/09/24 02:58:14;;;;;;;19.07;17.63;;;;;;;15.15;100.00;98152.31;2040888;29;20690;-80
2021/09/24 02:59:15;;;;;;;20.05;18.52;;;;;;;15.16;100.00;98154.66;2049456;29;20607;-80
2021/09/24 03:00:17;;;;;;;20.27;18.63;;;;;;;15.17;100.00;98158.91;2048942;29;20292;-80
2021/09/24 03:01:18;;;;;;;19.23;17.83;;;;;;;15.17;100.00;98164.28;2049374;29;20608;-80
2021/09/24 03:02:20;;;;;;;19.63;18.13;;;;;;;15.13;100.00;98163.41;2049919;29;20300;-80
2021/09/24 03:03:22;;;;;;;19.23;17.65;;;;;;;15.07;100.00;98145.22;2049976;28;20199;-79
2021/09/24 03:04:24;;;;;;;18.98;17.40;;;;;;;15.07;100.00;98142.53;2049927;28;20209;-79
2021/09/24 03:05:25;;;;;;;18.75;17.30;;;;;;;15.06;100.00;98176.69;2049317;29;20198;-80
2021/09/24 03:06:27;;;;;;;18.50;16.90;;;;;;;14.96;100.00;98193.31;2049488;29;20195;-79
2021/09/24 03:07:28;;;;;;;18.23;16.95;;;;;;;14.88;100.00;98167.41;2049952;28;20653;-80
2021/09/24 03:08:29;;;;;;;19.13;17.83;;;;;;;14.71;100.00;98179.25;2049350;29;20618;-80
2021/09/24 03:09:32;;;;;;;25.63;23.25;;;;;;;14.48;100.00;98170.97;2041306;29;20206;-79
2021/09/24 03:10:34;;;;;;;26.85;24.40;;;;;;;14.26;100.00;98185.69;2041474;29;20297;-79
2021/09/24 03:11:35;;;;;;;26.05;24.05;;;;;;;13.98;100.00;98207.09;2049432;29;20198;-80
2021/09/24 03:12:36;;;;;;;25.83;23.93;;;;;;;13.80;100.00;98195.09;2049171;29;20313;-79
2021/09/24 03:13:37;;;;;;;25.30;23.40;;;;;;;13.66;100.00;98186.63;2041029;29;20211;-79
2021/09/24 03:14:39;;;;;;;23.83;22.17;;;;;;;13.64;100.00;98207.59;2049571;29;20194;-80
2021/09/24 03:15:39;;;;;;;23.08;21.38;;;;;;;13.57;100.00;98192.91;2049930;28;20576;-80
2021/09/24 03:16:42;;;;;;;21.77;20.17;;;;;;;13.58;100.00;98209.75;2049233;29;20206;-79
2021/09/24 03:17:45;;;;;;;21.98;20.40;;;;;;;13.58;100.00;98204.41;2049248;29;20202;-80
2021/09/24 03:18:47;;;;;;;20.52;18.90;;;;;;;13.54;100.00;98198.91;2048793;29;20209;-79
2021/09/24 03:19:48;;;;;;;21.42;19.77;;;;;;;13.51;100.00;98199.59;2041394;29;20678;-80
2021/09/24 03:20:51;;;;;;;19.77;18.37;;;;;;;13.53;100.00;98220.69;2049371;29;20556;-80
2021/09/24 03:21:52;;;;;;;19.60;18.20;;;;;;;13.52;100.00;98195.78;2049182;29;20209;-80
2021/09/24 03:22:55;;;;;;;20.50;18.93;;;;;;;13.54;100.00;98212.31;2049290;29;20667;-80
2021/09/24 03:23:55;;;;;;;19.58;18.27;;;;;;;13.60;100.00;98228.94;2049854;28;20544;-79
2021/09/24 03:24:59;;;;;;;19.27;18.00;;;;;;;13.53;100.00;98208.06;2049841;29;20209;-79
2021/09/24 03:26:08;;;;;;;21.30;19.50;;;;;;;13.45;100.00;98200.91;2049066;29;20269;-80
2021/09/24 03:27:08;;;;;;;20.17;18.77;;;;;;;13.43;100.00;98205.06;2049437;29;20178;-79
2021/09/24 03:28:11;;;;;;;19.97;18.53;;;;;;;13.39;100.00;98199.59;2049175;29;20772;-80
2021/09/24 03:29:13;;;;;;;19.60;18.20;;;;;;;13.31;100.00;98207.75;2049256;29;20198;-80
2021/09/24 03:30:14;;;;;;;19.08;17.77;;;;;;;13.33;100.00;98200.16;2049350;29;20193;-80
2021/09/24 03:31:16;;;;;;;19.75;18.17;;;;;;;13.26;100.00;98198.81;2049808;29;20186;-80
2021/09/24 03:32:19;;;;;;;20.02;18.55;;;;;;;13.29;100.00;98200.84;2050048;28;20186;-80
2021/09/24 03:33:20;;;;;;;19.38;17.98;;;;;;;13.31;100.00;98195.13;2049823;28;20205;-80
2021/09/24 03:34:22;;;;;;;19.88;18.23;;;;;;;13.27;100.00;98191.53;2049060;29;20210;-80
2021/09/24 03:35:24;;;;;;;19.73;18.20;;;;;;;13.28;100.00;98209.19;2049442;29;20277;-80
2021/09/24 03:36:26;;;;;;;19.45;17.95;;;;;;;13.30;100.00;98209.66;2049039;29;20206;-80
2021/09/24 03:37:27;;;;;;;20.02;18.52;;;;;;;13.25;100.00;98197.25;2049302;29;20194;-80
2021/09/24 03:38:28;;;;;;;20.43;18.60;;;;;;;13.25;100.00;98213.31;2049990;29;20611;-80
2021/09/24 03:39:29;;;;;;;19.52;18.02;;;;;;;13.19;100.00;98209.28;2049142;29;20202;-80
2021/09/24 03:40:38;;;;;;;20.47;18.87;;;;;;;13.17;100.00;98208.03;2041177;29;20195;-80
2021/09/24 03:41:40;;;;;;;19.92;18.63;;;;;;;13.12;100.00;98214.41;2049412;29;20717;-80
2021/09/24 03:42:41;;;;;;;19.48;18.08;;;;;;;13.19;100.00;98220.00;2049227;29;20205;-80
2021/09/24 03:43:42;;;;;;;19.45;18.05;;;;;;;13.17;100.00;98216.06;2049242;29;20201;-80
2021/09/24 03:44:44;;;;;;;19.03;17.63;;;;;;;13.15;100.00;98220.97;2049815;29;20253;-80
2021/09/24 03:45:45;;;;;;;19.55;18.05;;;;;;;13.13;100.00;98209.84;2049892;29;20195;-81
2021/09/24 03:46:46;;;;;;;18.77;17.35;;;;;;;13.09;100.00;98217.72;2049118;29;20210;-80
2021/09/24 03:47:50;;;;;;;19.23;17.80;;;;;;;13.09;100.00;98222.31;2049462;29;20223;-80
2021/09/24 03:48:51;;;;;;;18.38;17.17;;;;;;;13.08;100.00;98228.78;2049995;28;20575;-80
2021/09/24 03:49:52;;;;;;;18.57;17.27;;;;;;;13.10;100.00;98229.22;2049059;29;20198;-80
2021/09/24 03:50:54;;;;;;;18.88;17.27;;;;;;;13.18;100.00;98218.41;2049251;29;20209;-80
2021/09/24 03:51:55;;;;;;;19.33;18.00;;;;;;;13.14;100.00;98204.13;2048959;29;20213;-80
2021/09/24 03:52:58;;;;;;;19.47;17.93;;;;;;;13.11;100.00;98212.03;2041094;29;20309;-80
2021/09/24 03:53:58;;;;;;;19.85;18.27;;;;;;;13.04;100.00;98217.19;2049586;28;20190;-80
2021/09/24 03:55:01;;;;;;;19.00;17.70;;;;;;;13.00;100.00;98225.88;2051510;29;20199;-80
2021/09/24 03:56:05;;;;;;;19.63;17.95;;;;;;;13.02;100.00;98225.53;2050705;29;20210;-80
2021/09/24 03:57:08;;;;;;;18.88;17.30;;;;;;;12.98;100.00;98220.06;2050783;29;20265;-80
2021/09/24 03:58:09;;;;;;;18.52;17.23;;;;;;;12.92;100.00;98216.03;2051263;28;20631;-80
2021/09/24 03:59:11;;;;;;;18.53;17.17;;;;;;;12.92;100.00;98216.03;2051329;29;20269;-80
2021/09/24 04:00:12;;;;;;;18.25;16.77;;;;;;;12.86;100.00;98222.72;2051271;29;20198;-81
2021/09/24 04:01:13;;;;;;;18.20;16.70;;;;;;;12.87;100.00;98226.97;2054890;28;20230;-80
2021/09/24 04:02:14;;;;;;;18.50;17.10;;;;;;;12.86;100.00;98238.00;2059190;28;20204;-80
2021/09/24 04:03:16;;;;;;;18.77;17.07;;;;;;;12.82;100.00;98235.19;2050573;29;20233;-80
2021/09/24 04:04:19;;;;;;;18.80;17.33;;;;;;;12.83;100.00;98242.09;2042752;29;20206;-80
2021/09/24 04:05:21;;;;;;;18.15;16.75;;;;;;;12.80;100.00;98237.44;2050942;28;20249;-80
2021/09/24 04:06:22;;;;;;;18.63;17.23;;;;;;;12.82;100.00;98237.09;2050511;29;20741;-80
2021/09/24 04:07:24;;;;;;;18.13;16.70;;;;;;;12.90;100.00;98233.53;2050755;29;20516;-80
2021/09/24 04:08:24;;;;;;;19.10;17.60;;;;;;;12.90;100.00;98223.63;2059170;28;20200;-81
2021/09/24 04:09:26;;;;;;;18.17;16.80;;;;;;;12.88;100.00;98228.53;2059235;28;20225;-80
2021/09/24 04:10:28;;;;;;;18.75;17.13;;;;;;;12.88;100.00;98241.13;2059342;28;20194;-81
2021/09/24 04:11:31;;;;;;;18.63;17.00;;;;;;;12.88;100.00;98233.09;2059160;28;20664;-80
2021/09/24 04:12:32;;;;;;;18.40;16.90;;;;;;;12.87;100.00;98235.00;2050106;29;20205;-81
2021/09/24 04:13:34;;;;;;;18.00;16.70;;;;;;;12.87;100.00;98237.66;2050584;28;20234;-81
2021/09/24 04:14:34;;;;;;;18.10;16.67;;;;;;;12.84;100.00;98235.63;2050478;29;20848;-80
2021/09/24 04:15:36;;;;;;;17.73;16.50;;;;;;;12.78;100.00;98231.63;2050573;29;20251;-80
2021/09/24 04:16:39;;;;;;;18.17;16.70;;;;;;;12.74;100.00;98234.16;2050485;29;20214;-80
2021/09/24 04:17:42;;;;;;;18.00;16.70;;;;;;;12.72;100.00;98232.94;2042789;29;20643;-81
2021/09/24 04:18:44;;;;;;;18.30;16.90;;;;;;;12.71;100.00;98226.03;2050832;28;20661;-81
2021/09/24 04:19:45;;;;;;;18.63;17.23;;;;;;;12.68;100.00;98245.41;2059239;28;20607;-81
2021/09/24 04:20:47;;;;;;;19.98;18.33;;;;;;;12.62;100.00;98233.34;2059166;28;20660;-81
2021/09/24 04:21:49;;;;;;;19.55;17.95;;;;;;;12.62;100.00;98239.47;2050208;29;20199;-81
2021/09/24 04:22:50;;;;;;;20.00;18.13;;;;;;;12.60;100.00;98240.94;2050685;28;20187;-81
2021/09/24 04:23:54;;;;;;;19.83;18.33;;;;;;;12.61;100.00;98253.97;2059114;28;20182;-81
2021/09/24 04:24:56;;;;;;;20.92;18.98;;;;;;;12.60;100.00;98240.94;2050499;29;20615;-81
2021/09/24 04:25:57;;;;;;;21.00;19.30;;;;;;;12.56;100.00;98234.66;2050615;28;20585;-81
2021/09/24 04:27:00;;;;;;;21.17;19.47;;;;;;;12.55;100.00;98249.16;2059164;28;20186;-81
2021/09/24 04:28:01;;;;;;;20.85;19.40;;;;;;;12.55;100.00;98236.56;2059253;28;20251;-81
2021/09/24 04:29:05;;;;;;;21.67;20.03;;;;;;;12.55;100.00;98249.16;2059079;28;20237;-81
2021/09/24 04:30:08;;;;;;;21.42;19.80;;;;;;;12.58;100.00;98254.63;2059303;28;20178;-81
2021/09/24 04:31:10;;;;;;;21.95;20.42;;;;;;;12.56;100.00;98256.06;2059186;28;20657;-81
2021/09/24 04:32:11;;;;;;;22.27;20.15;;;;;;;12.60;100.00;98257.78;2050367;29;20660;-81
2021/09/24 04:33:13;;;;;;;20.77;19.27;;;;;;;12.55;100.00;98259.84;2042395;29;20227;-80
2021/09/24 04:34:14;;;;;;;19.48;17.92;;;;;;;12.55;100.00;98257.19;2050033;29;20449;-81
2021/09/24 04:35:15;;;;;;;19.47;17.80;;;;;;;12.54;100.00;98263.66;2050402;29;20201;-80
2021/09/24 04:36:16;;;;;;;19.10;17.70;;;;;;;12.56;100.00;98258.75;2050291;29;20273;-81
2021/09/24 04:37:18;;;;;;;20.07;18.27;;;;;;;12.56;100.00;98264.88;2042410;29;20195;-81
2021/09/24 04:38:19;;;;;;;19.42;17.83;;;;;;;12.60;100.00;98273.03;2042470;29;20211;-80
2021/09/24 04:39:21;;;;;;;19.30;17.60;;;;;;;12.59;100.00;98263.44;2050471;28;20198;-81
2021/09/24 04:40:21;;;;;;;18.25;16.83;;;;;;;12.58;100.00;98264.53;2050471;29;20210;-81